sensor_id;sensor_type;location;lat;lon;timestamp;pressure;altitude;pressure_sealevel;temperature;humidity
4586;BME280;2305;50.118;8.952;2024-01-25T00:00:11;101689.16;;;10.21;100.00
4586;BME280;2305;50.118;8.952;2024-01-25T00:02:39;101687.81;;;10.14;100.00
4586;BME280;2305;50.118;8.952;2024-01-25T00:05:08;101680.03;;;10.12;100.00
4586;BME280;2305;50.118;8.952;2024-01-25T00:07:45;101675.19;;;10.34;100.00
4586;BME280;2305;50.118;8.952;2024-01-25T00:10:16;101675.81;;;10.24;100.00
4586;BME280;2305;50.118;8.952;2024-01-25T00:12:45;101672.69;;;10.17;100.00
4586;BME280;2305;50.118;8.952;2024-01-25T00:15:13;101663.66;;;10.21;100.00
4586;BME280;2305;50.118;8.952;2024-01-25T00:17:41;101676.84;;;10.21;100.00
4586;BME280;2305;50.118;8.952;2024-01-25T00:20:12;101671.19;;;10.13;100.00
4586;BME280;2305;50.118;8.952;2024-01-25T00:22:40;101673.22;;;10.08;100.00
4586;BME280;2305;50.118;8.952;2024-01-25T00:25:15;101661.16;;;10.04;100.00
4586;BME280;2305;50.118;8.952;2024-01-25T00:27:43;101658.59;;;10.32;100.00
4586;BME280;2305;50.118;8.952;2024-01-25T00:30:12;101667.28;;;10.34;100.00
4586;BME280;2305;50.118;8.952;2024-01-25T00:32:44;101662.81;;;10.21;100.00
4586;BME280;2305;50.118;8.952;2024-01-25T00:35:14;101664.81;;;10.31;100.00
4586;BME280;2305;50.118;8.952;2024-01-25T00:37:45;101656.50;;;10.23;100.00
4586;BME280;2305;50.118;8.952;2024-01-25T00:40:15;101652.31;;;10.35;100.00
4586;BME280;2305;50.118;8.952;2024-01-25T00:42:46;101640.09;;;10.04;100.00
4586;BME280;2305;50.118;8.952;2024-01-25T00:45:21;101643.97;;;9.97;100.00
4586;BME280;2305;50.118;8.952;2024-01-25T00:47:50;101645.13;;;9.93;100.00
4586;BME280;2305;50.118;8.952;2024-01-25T00:50:20;101637.44;;;10.04;100.00
4586;BME280;2305;50.118;8.952;2024-01-25T00:52:51;101645.50;;;10.01;100.00
4586;BME280;2305;50.118;8.952;2024-01-25T00:55:22;101653.69;;;9.97;100.00
4586;BME280;2305;50.118;8.952;2024-01-25T00:57:50;101654.81;;;10.22;100.00
4586;BME280;2305;50.118;8.952;2024-01-25T01:00:21;101647.56;;;10.12;100.00
4586;BME280;2305;50.118;8.952;2024-01-25T01:02:50;101653.56;;;10.14;100.00
4586;BME280;2305;50.118;8.952;2024-01-25T01:05:20;101655.25;;;10.15;100.00
4586;BME280;2305;50.118;8.952;2024-01-25T01:07:50;101661.31;;;10.17;100.00
4586;BME280;2305;50.118;8.952;2024-01-25T01:10:18;101662.25;;;10.16;100.00
4586;BME280;2305;50.118;8.952;2024-01-25T01:12:47;101654.25;;;10.17;100.00
4586;BME280;2305;50.118;8.952;2024-01-25T01:15:16;101669.28;;;10.15;100.00
4586;BME280;2305;50.118;8.952;2024-01-25T01:17:47;101669.28;;;10.15;100.00
4586;BME280;2305;50.118;8.952;2024-01-25T01:20:17;101663.03;;;10.32;100.00
4586;BME280;2305;50.118;8.952;2024-01-25T01:22:45;101657.78;;;10.32;100.00
4586;BME280;2305;50.118;8.952;2024-01-25T01:25:13;101653.81;;;10.25;100.00
4586;BME280;2305;50.118;8.952;2024-01-25T01:27:44;101653.53;;;10.29;100.00
4586;BME280;2305;50.118;8.952;2024-01-25T01:30:14;101659.75;;;10.28;100.00
4586;BME280;2305;50.118;8.952;2024-01-25T01:32:42;101664.66;;;10.34;100.00
4586;BME280;2305;50.118;8.952;2024-01-25T01:35:13;101651.63;;;10.31;100.00
4586;BME280;2305;50.118;8.952;2024-01-25T01:37:41;101656.75;;;10.34;100.00
4586;BME280;2305;50.118;8.952;2024-01-25T01:40:10;101665.00;;;10.28;100.00
4586;BME280;2305;50.118;8.952;2024-01-25T01:42:38;101667.09;;;10.37;100.00
4586;BME280;2305;50.118;8.952;2024-01-25T01:45:11;101659.91;;;10.25;100.00
4586;BME280;2305;50.118;8.952;2024-01-25T01:47:40;101652.47;;;10.18;100.00
4586;BME280;2305;50.118;8.952;2024-01-25T01:50:09;101639.66;;;10.12;100.00
4586;BME280;2305;50.118;8.952;2024-01-25T01:52:37;101644.69;;;10.30;100.00
4586;BME280;2305;50.118;8.952;2024-01-25T01:55:07;101644.28;;;10.22;100.00
4586;BME280;2305;50.118;8.952;2024-01-25T01:57:39;101641.81;;;10.05;100.00
4586;BME280;2305;50.118;8.952;2024-01-25T02:00:09;101665.91;;;9.98;100.00
4586;BME280;2305;50.118;8.952;2024-01-25T02:02:42;101656.31;;;9.97;100.00
4586;BME280;2305;50.118;8.952;2024-01-25T02:05:10;101648.69;;;9.92;100.00
4586;BME280;2305;50.118;8.952;2024-01-25T02:07:42;101651.66;;;9.86;100.00
4586;BME280;2305;50.118;8.952;2024-01-25T02:10:11;101683.06;;;9.89;100.00
4586;BME280;2305;50.118;8.952;2024-01-25T02:12:39;101680.69;;;9.85;100.00
4586;BME280;2305;50.118;8.952;2024-01-25T02:15:07;101674.75;;;9.81;100.00
4586;BME280;2305;50.118;8.952;2024-01-25T02:17:36;101673.66;;;9.85;100.00
4586;BME280;2305;50.118;8.952;2024-01-25T02:20:08;101680.28;;;9.92;100.00
4586;BME280;2305;50.118;8.952;2024-01-25T02:22:39;101668.81;;;9.78;100.00
4586;BME280;2305;50.118;8.952;2024-01-25T02:25:07;101677.84;;;9.74;100.00
4586;BME280;2305;50.118;8.952;2024-01-25T02:27:36;101684.47;;;9.65;100.00
4586;BME280;2305;50.118;8.952;2024-01-25T02:30:09;101689.88;;;9.62;100.00
4586;BME280;2305;50.118;8.952;2024-01-25T02:32:39;101676.09;;;9.59;100.00
4586;BME280;2305;50.118;8.952;2024-01-25T02:35:07;101679.88;;;9.53;100.00
4586;BME280;2305;50.118;8.952;2024-01-25T02:37:36;101690.50;;;9.52;100.00
4586;BME280;2305;50.118;8.952;2024-01-25T02:40:07;101695.00;;;9.50;100.00
4586;BME280;2305;50.118;8.952;2024-01-25T02:42:35;101687.19;;;9.48;100.00
4586;BME280;2305;50.118;8.952;2024-01-25T02:45:06;101697.88;;;9.45;100.00
4586;BME280;2305;50.118;8.952;2024-01-25T02:47:34;101705.19;;;9.56;100.00
4586;BME280;2305;50.118;8.952;2024-01-25T02:50:02;101705.84;;;9.59;100.00
4586;BME280;2305;50.118;8.952;2024-01-25T02:52:30;101692.19;;;9.68;100.00
4586;BME280;2305;50.118;8.952;2024-01-25T02:54:58;101712.28;;;9.69;100.00
4586;BME280;2305;50.118;8.952;2024-01-25T02:57:30;101698.03;;;9.73;100.00
4586;BME280;2305;50.118;8.952;2024-01-25T02:59:59;101698.03;;;9.73;100.00
4586;BME280;2305;50.118;8.952;2024-01-25T03:02:28;101695.75;;;9.83;100.00
4586;BME280;2305;50.118;8.952;2024-01-25T03:04:58;101695.75;;;9.83;100.00
4586;BME280;2305;50.118;8.952;2024-01-25T03:07:27;101695.56;;;9.86;100.00
4586;BME280;2305;50.118;8.952;2024-01-25T03:09:56;101702.28;;;9.76;100.00
4586;BME280;2305;50.118;8.952;2024-01-25T03:12:24;101703.38;;;9.72;100.00
4586;BME280;2305;50.118;8.952;2024-01-25T03:14:52;101701.00;;;9.67;100.00
4586;BME280;2305;50.118;8.952;2024-01-25T03:17:20;101709.44;;;9.58;100.00
4586;BME280;2305;50.118;8.952;2024-01-25T03:19:49;101715.88;;;9.53;100.00
4586;BME280;2305;50.118;8.952;2024-01-25T03:22:17;101710.50;;;9.54;100.00
4586;BME280;2305;50.118;8.952;2024-01-25T03:24:45;101717.50;;;9.55;100.00
4586;BME280;2305;50.118;8.952;2024-01-25T03:27:15;101716.72;;;9.53;100.00
4586;BME280;2305;50.118;8.952;2024-01-25T03:29:43;101716.03;;;9.50;100.00
4586;BME280;2305;50.118;8.952;2024-01-25T03:32:13;101736.25;;;9.65;100.00
4586;BME280;2305;50.118;8.952;2024-01-25T03:34:41;101738.88;;;9.65;100.00
4586;BME280;2305;50.118;8.952;2024-01-25T03:37:09;101738.63;;;9.69;100.00
4586;BME280;2305;50.118;8.952;2024-01-25T03:39:38;101745.31;;;9.59;100.00
4586;BME280;2305;50.118;8.952;2024-01-25T03:42:08;101744.56;;;9.57;100.00
4586;BME280;2305;50.118;8.952;2024-01-25T03:44:35;101749.41;;;9.49;100.00
4586;BME280;2305;50.118;8.952;2024-01-25T03:47:06;101746.34;;;9.41;100.00
4586;BME280;2305;50.118;8.952;2024-01-25T03:49:35;101737.09;;;9.34;100.00
4586;BME280;2305;50.118;8.952;2024-01-25T03:52:04;101740.03;;;9.28;100.00
4586;BME280;2305;50.118;8.952;2024-01-25T03:54:35;101736.97;;;9.36;100.00
4586;BME280;2305;50.118;8.952;2024-01-25T03:57:03;101739.94;;;9.30;100.00
4586;BME280;2305;50.118;8.952;2024-01-25T03:59:33;101736.56;;;9.28;100.00
4586;BME280;2305;50.118;8.952;2024-01-25T04:02:04;101744.88;;;9.20;100.00
4586;BME280;2305;50.118;8.952;2024-01-25T04:04:34;101748.25;;;9.22;100.00
4586;BME280;2305;50.118;8.952;2024-01-25T04:07:03;101735.69;;;9.12;100.00
4586;BME280;2305;50.118;8.952;2024-01-25T04:09:33;101726.22;;;9.25;100.00
4586;BME280;2305;50.118;8.952;2024-01-25T04:12:04;101728.91;;;9.23;100.00
4586;BME280;2305;50.118;8.952;2024-01-25T04:14:32;101728.22;;;9.20;100.00
4586;BME280;2305;50.118;8.952;2024-01-25T04:17:00;101748.06;;;9.10;100.00
4586;BME280;2305;50.118;8.952;2024-01-25T04:19:28;101743.19;;;9.02;100.00
4586;BME280;2305;50.118;8.952;2024-01-25T04:21:58;101739.94;;;8.97;100.00
4586;BME280;2305;50.118;8.952;2024-01-25T04:24:26;101732.41;;;8.92;100.00
4586;BME280;2305;50.118;8.952;2024-01-25T04:26:55;101744.44;;;8.95;100.00
4586;BME280;2305;50.118;8.952;2024-01-25T04:29:23;101746.31;;;8.93;100.00
4586;BME280;2305;50.118;8.952;2024-01-25T04:31:53;101754.28;;;8.92;100.00
4586;BME280;2305;50.118;8.952;2024-01-25T04:34:24;101746.69;;;8.86;100.00
4586;BME280;2305;50.118;8.952;2024-01-25T04:36:52;101758.59;;;8.93;100.00
4586;BME280;2305;50.118;8.952;2024-01-25T04:39:23;101748.88;;;8.95;100.00
4586;BME280;2305;50.118;8.952;2024-01-25T04:41:50;101762.31;;;8.89;100.00
4586;BME280;2305;50.118;8.952;2024-01-25T04:44:19;101762.69;;;8.98;100.00
4586;BME280;2305;50.118;8.952;2024-01-25T04:46:46;101766.09;;;8.83;100.00
4586;BME280;2305;50.118;8.952;2024-01-25T04:49:14;101772.44;;;8.96;100.00
4586;BME280;2305;50.118;8.952;2024-01-25T04:51:43;101782.63;;;9.02;100.00
4586;BME280;2305;50.118;8.952;2024-01-25T04:54:11;101788.88;;;9.00;100.00
4586;BME280;2305;50.118;8.952;2024-01-25T04:56:44;101788.69;;;8.88;100.00
4586;BME280;2305;50.118;8.952;2024-01-25T04:59:13;101794.19;;;8.83;100.00
4586;BME280;2305;50.118;8.952;2024-01-25T05:01:41;101795.00;;;8.83;100.00
4586;BME280;2305;50.118;8.952;2024-01-25T05:04:09;101802.59;;;8.89;100.00
4586;BME280;2305;50.118;8.952;2024-01-25T05:06:37;101800.06;;;8.88;100.00
4586;BME280;2305;50.118;8.952;2024-01-25T05:09:06;101809.88;;;8.85;100.00
4586;BME280;2305;50.118;8.952;2024-01-25T05:11:38;101805.75;;;8.79;100.00
4586;BME280;2305;50.118;8.952;2024-01-25T05:14:07;101809.56;;;8.74;100.00
4586;BME280;2305;50.118;8.952;2024-01-25T05:16:35;101810.72;;;8.68;100.00
4586;BME280;2305;50.118;8.952;2024-01-25T05:19:03;101805.47;;;8.68;100.00
4586;BME280;2305;50.118;8.952;2024-01-25T05:21:31;101812.41;;;8.69;100.00
4586;BME280;2305;50.118;8.952;2024-01-25T05:24:00;101815.03;;;8.69;100.00
4586;BME280;2305;50.118;8.952;2024-01-25T05:26:29;101820.38;;;8.68;100.00
4586;BME280;2305;50.118;8.952;2024-01-25T05:28:57;101822.16;;;8.67;100.00
4586;BME280;2305;50.118;8.952;2024-01-25T05:31:26;101823.16;;;8.65;100.00
4586;BME280;2305;50.118;8.952;2024-01-25T05:33:56;101824.69;;;8.69;100.00
4586;BME280;2305;50.118;8.952;2024-01-25T05:36:24;101824.28;;;8.59;100.00
4586;BME280;2305;50.118;8.952;2024-01-25T05:38:52;101820.38;;;8.51;100.00
4586;BME280;2305;50.118;8.952;2024-01-25T05:41:23;101817.28;;;8.60;100.00
4586;BME280;2305;50.118;8.952;2024-01-25T05:43:52;101816.22;;;8.64;100.00
4586;BME280;2305;50.118;8.952;2024-01-25T05:46:21;101816.84;;;8.33;100.00
4586;BME280;2305;50.118;8.952;2024-01-25T05:48:51;101819.38;;;8.35;100.00
4586;BME280;2305;50.118;8.952;2024-01-25T05:51:20;101818.41;;;8.19;100.00
4586;BME280;2305;50.118;8.952;2024-01-25T05:53:50;101821.69;;;8.05;100.00
4586;BME280;2305;50.118;8.952;2024-01-25T05:56:18;101829.00;;;7.99;100.00
4586;BME280;2305;50.118;8.952;2024-01-25T05:58:52;101831.94;;;7.93;100.00
4586;BME280;2305;50.118;8.952;2024-01-25T06:01:23;101829.44;;;7.90;100.00
4586;BME280;2305;50.118;8.952;2024-01-25T06:03:53;101830.28;;;7.90;100.00
4586;BME280;2305;50.118;8.952;2024-01-25T06:06:21;101825.81;;;7.92;100.00
4586;BME280;2305;50.118;8.952;2024-01-25T06:08:51;101818.72;;;7.94;100.00
4586;BME280;2305;50.118;8.952;2024-01-25T06:11:36;101824.06;;;7.93;100.00
4586;BME280;2305;50.118;8.952;2024-01-25T06:14:05;101823.25;;;7.91;100.00
4586;BME280;2305;50.118;8.952;2024-01-25T06:16:34;101829.41;;;8.08;100.00
4586;BME280;2305;50.118;8.952;2024-01-25T06:19:04;101827.94;;;8.03;100.00
4586;BME280;2305;50.118;8.952;2024-01-25T06:21:33;101815.25;;;7.94;100.00
4586;BME280;2305;50.118;8.952;2024-01-25T06:24:02;101819.84;;;7.89;100.00
4586;BME280;2305;50.118;8.952;2024-01-25T06:26:30;101822.31;;;7.92;100.00
4586;BME280;2305;50.118;8.952;2024-01-25T06:28:58;101821.34;;;7.94;100.00
4586;BME280;2305;50.118;8.952;2024-01-25T06:31:27;101828.50;;;7.91;100.00
4586;BME280;2305;50.118;8.952;2024-01-25T06:33:56;101829.91;;;7.98;100.00
4586;BME280;2305;50.118;8.952;2024-01-25T06:36:25;101835.31;;;7.95;100.00
4586;BME280;2305;50.118;8.952;2024-01-25T06:38:54;101852.91;;;7.93;100.00
4586;BME280;2305;50.118;8.952;2024-01-25T06:41:24;101857.31;;;7.92;100.00
4586;BME280;2305;50.118;8.952;2024-01-25T06:43:52;101861.84;;;7.89;100.00
4586;BME280;2305;50.118;8.952;2024-01-25T06:46:20;101868.78;;;7.90;100.00
4586;BME280;2305;50.118;8.952;2024-01-25T06:48:51;101866.03;;;7.93;100.00
4586;BME280;2305;50.118;8.952;2024-01-25T06:51:20;101866.81;;;7.95;100.00
4586;BME280;2305;50.118;8.952;2024-01-25T06:53:52;101857.84;;;7.99;100.00
4586;BME280;2305;50.118;8.952;2024-01-25T06:56:20;101863.63;;;8.07;100.00
4586;BME280;2305;50.118;8.952;2024-01-25T06:58:48;101860.41;;;8.19;100.00
4586;BME280;2305;50.118;8.952;2024-01-25T07:01:20;101866.97;;;8.29;100.00
4586;BME280;2305;50.118;8.952;2024-01-25T07:03:49;101861.84;;;8.26;100.00
4586;BME280;2305;50.118;8.952;2024-01-25T07:06:19;101868.97;;;8.24;100.00
4586;BME280;2305;50.118;8.952;2024-01-25T07:08:47;101878.47;;;8.26;100.00
4586;BME280;2305;50.118;8.952;2024-01-25T07:11:18;101884.44;;;8.30;100.00
4586;BME280;2305;50.118;8.952;2024-01-25T07:13:46;101882.97;;;8.24;100.00
4586;BME280;2305;50.118;8.952;2024-01-25T07:16:17;101889.69;;;8.30;100.00
4586;BME280;2305;50.118;8.952;2024-01-25T07:18:47;101896.16;;;8.23;100.00
4586;BME280;2305;50.118;8.952;2024-01-25T07:21:18;101894.53;;;8.19;100.00
4586;BME280;2305;50.118;8.952;2024-01-25T07:23:46;101893.78;;;8.17;100.00
4586;BME280;2305;50.118;8.952;2024-01-25T07:26:19;101891.38;;;8.12;100.00
4586;BME280;2305;50.118;8.952;2024-01-25T07:28:47;101900.16;;;8.11;100.00
4586;BME280;2305;50.118;8.952;2024-01-25T07:31:16;101894.44;;;8.03;100.00
4586;BME280;2305;50.118;8.952;2024-01-25T07:33:44;101895.91;;;8.09;100.00
4586;BME280;2305;50.118;8.952;2024-01-25T07:36:15;101899.69;;;8.03;100.00
4586;BME280;2305;50.118;8.952;2024-01-25T07:38:43;101902.13;;;8.06;100.00
4586;BME280;2305;50.118;8.952;2024-01-25T07:41:13;101897.53;;;8.11;100.00
4586;BME280;2305;50.118;8.952;2024-01-25T07:43:43;101898.16;;;8.16;100.00
4586;BME280;2305;50.118;8.952;2024-01-25T07:46:11;101899.78;;;8.19;100.00
4586;BME280;2305;50.118;8.952;2024-01-25T07:48:45;101900.31;;;8.27;100.00
4586;BME280;2305;50.118;8.952;2024-01-25T07:51:13;101905.44;;;8.30;100.00
4586;BME280;2305;50.118;8.952;2024-01-25T07:53:41;101914.81;;;8.35;100.00
4586;BME280;2305;50.118;8.952;2024-01-25T07:56:09;101910.03;;;8.43;100.00
4586;BME280;2305;50.118;8.952;2024-01-25T07:58:38;101912.44;;;8.48;100.00
4586;BME280;2305;50.118;8.952;2024-01-25T08:01:07;101914.22;;;8.47;100.00
4586;BME280;2305;50.118;8.952;2024-01-25T08:03:37;101904.91;;;8.59;100.00
4586;BME280;2305;50.118;8.952;2024-01-25T08:06:05;101904.03;;;8.58;100.00
4586;BME280;2305;50.118;8.952;2024-01-25T08:08:33;101907.59;;;8.57;100.00
4586;BME280;2305;50.118;8.952;2024-01-25T08:11:01;101905.75;;;8.59;100.00
4586;BME280;2305;50.118;8.952;2024-01-25T08:13:31;101905.53;;;8.64;100.00
4586;BME280;2305;50.118;8.952;2024-01-25T08:16:01;101913.91;;;8.72;100.00
4586;BME280;2305;50.118;8.952;2024-01-25T08:18:31;101914.09;;;8.86;100.00
4586;BME280;2305;50.118;8.952;2024-01-25T08:20:59;101922.91;;;8.85;100.00
4586;BME280;2305;50.118;8.952;2024-01-25T08:23:30;101918.41;;;8.87;100.00
4586;BME280;2305;50.118;8.952;2024-01-25T08:25:58;101905.25;;;8.87;100.00
4586;BME280;2305;50.118;8.952;2024-01-25T08:28:26;101913.28;;;8.83;100.00
4586;BME280;2305;50.118;8.952;2024-01-25T08:30:54;101902.56;;;8.88;100.00
4586;BME280;2305;50.118;8.952;2024-01-25T08:33:25;101900.66;;;8.92;100.00
4586;BME280;2305;50.118;8.952;2024-01-25T08:35:55;101889.66;;;9.00;100.00
4586;BME280;2305;50.118;8.952;2024-01-25T08:38:26;101894.38;;;9.11;100.00
4586;BME280;2305;50.118;8.952;2024-01-25T08:40:53;101893.50;;;9.10;100.00
4586;BME280;2305;50.118;8.952;2024-01-25T08:43:21;101895.38;;;9.25;100.00
4586;BME280;2305;50.118;8.952;2024-01-25T08:45:51;101889.31;;;9.40;100.00
4586;BME280;2305;50.118;8.952;2024-01-25T08:48:19;101893.13;;;9.35;100.00
4586;BME280;2305;50.118;8.952;2024-01-25T08:50:49;101894.38;;;9.45;100.00
4586;BME280;2305;50.118;8.952;2024-01-25T08:53:23;101900.16;;;9.51;100.00
4586;BME280;2305;50.118;8.952;2024-01-25T08:55:54;101896.34;;;9.57;100.00
4586;BME280;2305;50.118;8.952;2024-01-25T08:58:42;101909.66;;;9.54;100.00
4586;BME280;2305;50.118;8.952;2024-01-25T09:01:15;101914.69;;;9.58;100.00
4586;BME280;2305;50.118;8.952;2024-01-25T09:03:48;101918.38;;;9.71;100.00
4586;BME280;2305;50.118;8.952;2024-01-25T09:06:17;101928.84;;;9.88;100.00
4586;BME280;2305;50.118;8.952;2024-01-25T09:08:46;101928.09;;;9.86;100.00
4586;BME280;2305;50.118;8.952;2024-01-25T09:11:14;101929.63;;;9.90;100.00
4586;BME280;2305;50.118;8.952;2024-01-25T09:13:41;101925.66;;;9.99;100.00
4586;BME280;2305;50.118;8.952;2024-01-25T09:16:12;101920.78;;;10.08;100.00
4586;BME280;2305;50.118;8.952;2024-01-25T09:18:41;101910.34;;;10.22;100.00
4586;BME280;2305;50.118;8.952;2024-01-25T09:21:09;101921.81;;;10.21;100.00
4586;BME280;2305;50.118;8.952;2024-01-25T09:23:37;101925.03;;;10.26;100.00
4586;BME280;2305;50.118;8.952;2024-01-25T09:26:06;101924.69;;;10.32;100.00
4586;BME280;2305;50.118;8.952;2024-01-25T09:28:35;101921.81;;;10.37;100.00
4586;BME280;2305;50.118;8.952;2024-01-25T09:31:04;101933.78;;;10.58;100.00
4586;BME280;2305;50.118;8.952;2024-01-25T09:33:35;101945.13;;;10.60;100.00
4586;BME280;2305;50.118;8.952;2024-01-25T09:36:04;101949.47;;;10.61;100.00
4586;BME280;2305;50.118;8.952;2024-01-25T09:38:33;101954.88;;;10.73;100.00
4586;BME280;2305;50.118;8.952;2024-01-25T09:41:03;101963.47;;;10.77;100.00
4586;BME280;2305;50.118;8.952;2024-01-25T09:43:33;101957.53;;;10.73;100.00
4586;BME280;2305;50.118;8.952;2024-01-25T09:46:04;101958.63;;;10.85;100.00
4586;BME280;2305;50.118;8.952;2024-01-25T09:48:35;101956.75;;;10.87;100.00
4586;BME280;2305;50.118;8.952;2024-01-25T09:51:04;101962.13;;;10.85;100.00
4586;BME280;2305;50.118;8.952;2024-01-25T09:53:34;101952.66;;;10.81;100.00
4586;BME280;2305;50.118;8.952;2024-01-25T09:56:06;101956.31;;;10.79;100.00
4586;BME280;2305;50.118;8.952;2024-01-25T09:58:39;101959.41;;;10.87;100.00
4586;BME280;2305;50.118;8.952;2024-01-25T10:01:11;101960.63;;;10.95;100.00
4586;BME280;2305;50.118;8.952;2024-01-25T10:03:42;101962.59;;;10.92;100.00
4586;BME280;2305;50.118;8.952;2024-01-25T10:06:12;101964.97;;;10.96;100.00
4586;BME280;2305;50.118;8.952;2024-01-25T10:08:43;101957.47;;;11.04;100.00
4586;BME280;2305;50.118;8.952;2024-01-25T10:11:11;101971.59;;;11.03;100.00
4586;BME280;2305;50.118;8.952;2024-01-25T10:13:44;101974.66;;;11.11;100.00
4586;BME280;2305;50.118;8.952;2024-01-25T10:16:14;101965.16;;;11.09;100.00
4586;BME280;2305;50.118;8.952;2024-01-25T10:19:00;101959.13;;;11.21;100.00
4586;BME280;2305;50.118;8.952;2024-01-25T10:21:31;101962.44;;;11.24;100.00
4586;BME280;2305;50.118;8.952;2024-01-25T10:24:29;101965.50;;;11.32;100.00
4586;BME280;2305;50.118;8.952;2024-01-25T10:27:08;101966.09;;;11.22;100.00
4586;BME280;2305;50.118;8.952;2024-01-25T10:29:41;101966.69;;;11.27;100.00
4586;BME280;2305;50.118;8.952;2024-01-25T10:32:10;101974.31;;;11.17;100.00
4586;BME280;2305;50.118;8.952;2024-01-25T10:34:48;101982.81;;;11.22;100.00
4586;BME280;2305;50.118;8.952;2024-01-25T10:37:22;101972.94;;;11.26;100.00
4586;BME280;2305;50.118;8.952;2024-01-25T10:39:55;101969.47;;;11.39;100.00
4586;BME280;2305;50.118;8.952;2024-01-25T10:42:25;101971.88;;;11.44;100.00
4586;BME280;2305;50.118;8.952;2024-01-25T10:44:55;101965.28;;;11.51;100.00
4586;BME280;2305;50.118;8.952;2024-01-25T10:47:23;101977.78;;;11.63;100.00
4586;BME280;2305;50.118;8.952;2024-01-25T10:49:53;101972.16;;;11.53;100.00
4586;BME280;2305;50.118;8.952;2024-01-25T10:52:23;101967.34;;;11.46;100.00
4586;BME280;2305;50.118;8.952;2024-01-25T10:54:52;101966.03;;;11.53;100.00
4586;BME280;2305;50.118;8.952;2024-01-25T10:57:20;101961.78;;;11.50;100.00
4586;BME280;2305;50.118;8.952;2024-01-25T10:59:48;101965.75;;;11.57;100.00
4586;BME280;2305;50.118;8.952;2024-01-25T11:02:19;101962.88;;;11.62;100.00
4586;BME280;2305;50.118;8.952;2024-01-25T11:04:53;101960.56;;;11.56;100.00
4586;BME280;2305;50.118;8.952;2024-01-25T11:07:23;101977.69;;;11.49;100.00
4586;BME280;2305;50.118;8.952;2024-01-25T11:09:53;101970.13;;;11.43;100.00
4586;BME280;2305;50.118;8.952;2024-01-25T11:12:22;101986.47;;;11.49;100.00
4586;BME280;2305;50.118;8.952;2024-01-25T11:14:54;101979.34;;;11.36;100.00
4586;BME280;2305;50.118;8.952;2024-01-25T11:17:23;101984.91;;;11.31;100.00
4586;BME280;2305;50.118;8.952;2024-01-25T11:19:51;101972.31;;;11.36;100.00
4586;BME280;2305;50.118;8.952;2024-01-25T11:22:19;101968.94;;;11.48;100.00
4586;BME280;2305;50.118;8.952;2024-01-25T11:24:49;101964.34;;;11.52;100.00
4586;BME280;2305;50.118;8.952;2024-01-25T11:27:19;101959.13;;;11.66;100.00
4586;BME280;2305;50.118;8.952;2024-01-25T11:29:47;101946.16;;;11.61;100.00
4586;BME280;2305;50.118;8.952;2024-01-25T11:32:15;101949.06;;;11.57;100.00
4586;BME280;2305;50.118;8.952;2024-01-25T11:34:46;101962.78;;;11.63;100.00
4586;BME280;2305;50.118;8.952;2024-01-25T11:37:14;101964.88;;;11.72;100.00
4586;BME280;2305;50.118;8.952;2024-01-25T11:39:44;101954.69;;;11.80;100.00
4586;BME280;2305;50.118;8.952;2024-01-25T11:42:13;101953.00;;;11.79;100.00
4586;BME280;2305;50.118;8.952;2024-01-25T11:44:41;101938.47;;;11.86;100.00
4586;BME280;2305;50.118;8.952;2024-01-25T11:47:09;101928.84;;;11.85;100.00
4586;BME280;2305;50.118;8.952;2024-01-25T11:49:41;101929.88;;;11.83;100.00
4586;BME280;2305;50.118;8.952;2024-01-25T11:52:12;101934.97;;;11.86;100.00
4586;BME280;2305;50.118;8.952;2024-01-25T11:54:42;101921.50;;;11.90;100.00
4586;BME280;2305;50.118;8.952;2024-01-25T11:57:10;101920.66;;;11.90;100.00
4586;BME280;2305;50.118;8.952;2024-01-25T11:59:40;101913.09;;;11.84;100.00
4586;BME280;2305;50.118;8.952;2024-01-25T12:02:08;101906.56;;;11.89;100.00
4586;BME280;2305;50.118;8.952;2024-01-25T12:04:40;101906.56;;;11.89;100.00
4586;BME280;2305;50.118;8.952;2024-01-25T12:07:12;101896.13;;;11.88;100.00
4586;BME280;2305;50.118;8.952;2024-01-25T12:09:40;101906.19;;;11.95;100.00
4586;BME280;2305;50.118;8.952;2024-01-25T12:12:11;101898.84;;;12.00;100.00
4586;BME280;2305;50.118;8.952;2024-01-25T12:14:40;101897.06;;;12.01;100.00
4586;BME280;2305;50.118;8.952;2024-01-25T12:17:10;101900.38;;;12.04;100.00
4586;BME280;2305;50.118;8.952;2024-01-25T12:19:41;101896.88;;;12.04;100.00
4586;BME280;2305;50.118;8.952;2024-01-25T12:22:09;101895.09;;;12.04;100.00
4586;BME280;2305;50.118;8.952;2024-01-25T12:24:39;101892.63;;;12.01;100.00
4586;BME280;2305;50.118;8.952;2024-01-25T12:27:26;101885.63;;;12.00;100.00
4586;BME280;2305;50.118;8.952;2024-01-25T12:30:04;101889.69;;;12.06;100.00
4586;BME280;2305;50.118;8.952;2024-01-25T12:32:33;101884.75;;;12.14;100.00
4586;BME280;2305;50.118;8.952;2024-01-25T12:35:03;101881.66;;;12.07;100.00
4586;BME280;2305;50.118;8.952;2024-01-25T12:37:34;101876.47;;;12.06;100.00
4586;BME280;2305;50.118;8.952;2024-01-25T12:40:06;101872.78;;;12.08;100.00
4586;BME280;2305;50.118;8.952;2024-01-25T12:43:00;101876.47;;;12.06;100.00
4586;BME280;2305;50.118;8.952;2024-01-25T12:45:41;101872.34;;;12.02;100.00
4586;BME280;2305;50.118;8.952;2024-01-25T12:48:09;101863.47;;;12.03;100.00
4586;BME280;2305;50.118;8.952;2024-01-25T12:50:41;101855.25;;;12.07;100.00
4586;BME280;2305;50.118;8.952;2024-01-25T12:53:14;101867.16;;;12.00;100.00
4586;BME280;2305;50.118;8.952;2024-01-25T12:55:44;101868.75;;;12.03;100.00
4586;BME280;2305;50.118;8.952;2024-01-25T12:58:35;101865.06;;;12.05;100.00
4586;BME280;2305;50.118;8.952;2024-01-25T13:01:04;101865.72;;;12.09;100.00
4586;BME280;2305;50.118;8.952;2024-01-25T13:03:32;101858.91;;;12.19;100.00
4586;BME280;2305;50.118;8.952;2024-01-25T13:06:03;101853.00;;;12.28;100.00
4586;BME280;2305;50.118;8.952;2024-01-25T13:08:32;101843.00;;;12.33;100.00
4586;BME280;2305;50.118;8.952;2024-01-25T13:11:06;101830.13;;;12.41;100.00
4586;BME280;2305;50.118;8.952;2024-01-25T13:13:40;101828.44;;;12.40;100.00
4586;BME280;2305;50.118;8.952;2024-01-25T13:16:12;101814.03;;;12.31;100.00
4586;BME280;2305;50.118;8.952;2024-01-25T13:18:39;101829.88;;;12.31;100.00